EDW89PE LEIB-LSZH
Flight info
| Callsign | EDW89PE |
|---|---|
| Flight time | N/A |
| Altitude | 36000 |
| Route | KABRE DCT ELTAN DCT MHN DCT MEROS DCT LAPIT DCT CHELY DCT LUMAS DCT NEVIX DCT MAXIR DCT LUSOL DCT BODRU DCT OKTET DCT IRMAR/N0446F320 DCT KINES DCT VANAS DCT MOBLO DCT LAMUR DCT GUDAX Z57 DOPIL |
| Aircraft | A320/M-SDE3FGHIRWY/LB1 |
Departure
| Time | N/A |
|---|---|
| Airport | Ibiza Airport (LEIB) |
Arrival
| Time | 2026-05-03 21:03 |
|---|---|
| Airport | Zürich Airport (LSZH) |
| Time | Latitude | Longitude | Altitude | Speed | Heading |
|---|---|---|---|---|---|
| 2026-05-03 20:15 | 43.06136 | 5.70270 | 36111 ft | 481 kts | 35° |
| 2026-05-03 20:15 | 43.10622 | 5.74779 | 36113 ft | 482 kts | 35° |
| 2026-05-03 20:16 | 43.16030 | 5.80231 | 36116 ft | 482 kts | 35° |
| 2026-05-03 20:16 | 43.21439 | 5.85684 | 36120 ft | 482 kts | 35° |
| 2026-05-03 20:17 | 43.26844 | 5.91148 | 36120 ft | 482 kts | 35° |
| 2026-05-03 20:17 | 43.32239 | 5.96623 | 36129 ft | 483 kts | 35° |
| 2026-05-03 20:18 | 43.37837 | 6.01666 | 36121 ft | 479 kts | 23° |
| 2026-05-03 20:18 | 43.44084 | 6.04387 | 36124 ft | 472 kts | 5° |
| 2026-05-03 20:19 | 43.50593 | 6.05163 | 36127 ft | 470 kts | 0° |
| 2026-05-03 20:19 | 43.57115 | 6.05819 | 36115 ft | 470 kts | 0° |
| 2026-05-03 20:20 | 43.63644 | 6.06478 | 36119 ft | 470 kts | 0° |
| 2026-05-03 20:20 | 43.70174 | 6.07137 | 36125 ft | 471 kts | 0° |
| 2026-05-03 20:21 | 43.76685 | 6.08273 | 36123 ft | 476 kts | 12° |
| 2026-05-03 20:21 | 43.82846 | 6.11709 | 36113 ft | 480 kts | 24° |
| 2026-05-03 20:22 | 43.88842 | 6.15803 | 36130 ft | 481 kts | 24° |
| 2026-05-03 20:22 | 43.94854 | 6.19905 | 36125 ft | 481 kts | 24° |
| 2026-05-03 20:23 | 44.00861 | 6.24013 | 36125 ft | 481 kts | 24° |
| 2026-05-03 20:23 | 44.06827 | 6.28105 | 36143 ft | 481 kts | 24° |
| 2026-05-03 20:24 | 44.12874 | 6.32255 | 36143 ft | 481 kts | 24° |
| 2026-05-03 20:24 | 44.18830 | 6.36363 | 36142 ft | 481 kts | 24° |
| 2026-05-03 20:25 | 44.24829 | 6.40512 | 36142 ft | 481 kts | 24° |
| 2026-05-03 20:25 | 44.30810 | 6.44655 | 36144 ft | 480 kts | 24° |
| 2026-05-03 20:26 | 44.36797 | 6.48801 | 36120 ft | 480 kts | 24° |
| 2026-05-03 20:26 | 44.42783 | 6.52959 | 36125 ft | 480 kts | 24° |
| 2026-05-03 20:27 | 44.48761 | 6.57120 | 36145 ft | 479 kts | 23° |
| 2026-05-03 20:27 | 44.54728 | 6.61288 | 36149 ft | 479 kts | 23° |
| 2026-05-03 20:28 | 44.60693 | 6.65473 | 36149 ft | 479 kts | 23° |
| 2026-05-03 20:28 | 44.66653 | 6.69646 | 36157 ft | 479 kts | 23° |
| 2026-05-03 20:29 | 44.72623 | 6.73829 | 36151 ft | 479 kts | 23° |
| 2026-05-03 20:29 | 44.78712 | 6.77499 | 36154 ft | 473 kts | 11° |
| 2026-05-03 20:30 | 44.85150 | 6.78706 | 36158 ft | 462 kts | 354° |
| 2026-05-03 20:30 | 44.91514 | 6.78277 | 36154 ft | 461 kts | 352° |
| 2026-05-03 20:31 | 44.97913 | 6.77861 | 36149 ft | 460 kts | 353° |
| 2026-05-03 20:31 | 45.04320 | 6.77446 | 36161 ft | 461 kts | 352° |
| 2026-05-03 20:32 | 45.10725 | 6.77017 | 36155 ft | 461 kts | 353° |
| 2026-05-03 20:32 | 45.17135 | 6.76593 | 36138 ft | 461 kts | 353° |
| 2026-05-03 20:33 | 45.23538 | 6.76167 | 36142 ft | 461 kts | 353° |
| 2026-05-03 20:33 | 45.29939 | 6.75736 | 36135 ft | 461 kts | 353° |
| 2026-05-03 20:34 | 45.36349 | 6.75310 | 36133 ft | 461 kts | 353° |
| 2026-05-03 20:34 | 45.42760 | 6.74888 | 36133 ft | 461 kts | 353° |
| 2026-05-03 20:35 | 45.49165 | 6.74455 | 36122 ft | 461 kts | 352° |
| 2026-05-03 20:35 | 45.55564 | 6.74013 | 36114 ft | 460 kts | 352° |
| 2026-05-03 20:36 | 45.61967 | 6.73572 | 36132 ft | 461 kts | 353° |
| 2026-05-03 20:36 | 45.68372 | 6.73135 | 36088 ft | 460 kts | 353° |
| 2026-05-03 20:37 | 45.74779 | 6.72696 | 36093 ft | 461 kts | 353° |
| 2026-05-03 20:37 | 45.81177 | 6.73216 | 36099 ft | 470 kts | 9° |
| 2026-05-03 20:38 | 45.87350 | 6.76413 | 36097 ft | 475 kts | 21° |
| 2026-05-03 20:38 | 45.93375 | 6.80349 | 36085 ft | 476 kts | 21° |
| 2026-05-03 20:39 | 45.99392 | 6.84296 | 36099 ft | 476 kts | 21° |
| 2026-05-03 20:39 | 46.05418 | 6.88250 | 36090 ft | 476 kts | 21° |
| 2026-05-03 20:40 | 46.11442 | 6.92204 | 36091 ft | 476 kts | 21° |
| 2026-05-03 20:40 | 46.17470 | 6.96176 | 36096 ft | 476 kts | 22° |
| 2026-05-03 20:41 | 46.23494 | 7.00157 | 36091 ft | 476 kts | 22° |
| 2026-05-03 20:41 | 46.29518 | 7.04142 | 36093 ft | 476 kts | 22° |
| 2026-05-03 20:42 | 46.35538 | 7.08141 | 36101 ft | 476 kts | 22° |
| 2026-05-03 20:42 | 46.41554 | 7.12146 | 36088 ft | 476 kts | 22° |
| 2026-05-03 20:43 | 46.47572 | 7.16165 | 36087 ft | 476 kts | 22° |
| 2026-05-03 20:43 | 46.53587 | 7.20188 | 36084 ft | 476 kts | 22° |
| 2026-05-03 20:44 | 46.59357 | 7.24894 | 36080 ft | 479 kts | 38° |
| 2026-05-03 20:44 | 46.64414 | 7.31260 | 35581 ft | 483 kts | 39° |
| 2026-05-03 20:44 | 46.66922 | 7.34417 | 34986 ft | 481 kts | 39° |
| 2026-05-03 20:45 | 46.69452 | 7.37602 | 34674 ft | 481 kts | 39° |
| 2026-05-03 20:45 | 46.72020 | 7.40839 | 34356 ft | 482 kts | 39° |
| 2026-05-03 20:45 | 46.74521 | 7.43996 | 34046 ft | 482 kts | 39° |
| 2026-05-03 20:45 | 46.77055 | 7.47204 | 33688 ft | 482 kts | 40° |
| 2026-05-03 20:46 | 46.79404 | 7.50703 | 33344 ft | 484 kts | 50° |
| 2026-05-03 20:46 | 46.81498 | 7.54544 | 32980 ft | 484 kts | 51° |
| 2026-05-03 20:46 | 46.83596 | 7.58404 | 32649 ft | 484 kts | 51° |
| 2026-05-03 20:46 | 46.85693 | 7.62255 | 32308 ft | 484 kts | 51° |
| 2026-05-03 20:47 | 46.87790 | 7.66104 | 31973 ft | 485 kts | 51° |
| 2026-05-03 20:47 | 46.89891 | 7.69969 | 31646 ft | 485 kts | 51° |
| 2026-05-03 20:47 | 46.91989 | 7.73835 | 30918 ft | 487 kts | 51° |
| 2026-05-03 20:47 | 46.94102 | 7.77728 | 29854 ft | 490 kts | 51° |
| 2026-05-03 20:48 | 46.96227 | 7.81652 | 28786 ft | 490 kts | 51° |
| 2026-05-03 20:48 | 46.98333 | 7.85553 | 27936 ft | 487 kts | 51° |
| 2026-05-03 20:48 | 47.00422 | 7.89424 | 27165 ft | 482 kts | 51° |
| 2026-05-03 20:48 | 47.02489 | 7.93261 | 26408 ft | 478 kts | 51° |
| 2026-05-03 20:49 | 47.04537 | 7.97071 | 25710 ft | 473 kts | 51° |
| 2026-05-03 20:49 | 47.06574 | 8.00844 | 25034 ft | 469 kts | 49° |
| 2026-05-03 20:49 | 47.08836 | 8.04244 | 24382 ft | 464 kts | 43° |
| 2026-05-03 20:49 | 47.11161 | 8.07507 | 23739 ft | 461 kts | 43° |
| 2026-05-03 20:50 | 47.13470 | 8.10745 | 23034 ft | 457 kts | 43° |
| 2026-05-03 20:50 | 47.15754 | 8.13952 | 22379 ft | 452 kts | 43° |
| 2026-05-03 20:50 | 47.18015 | 8.17129 | 21776 ft | 447 kts | 43° |
| 2026-05-03 20:50 | 47.20248 | 8.20271 | 21168 ft | 442 kts | 43° |
| 2026-05-03 20:51 | 47.22411 | 8.23451 | 20623 ft | 437 kts | 50° |
| 2026-05-03 20:51 | 47.24099 | 8.27123 | 20096 ft | 432 kts | 63° |
| 2026-05-03 20:51 | 47.25408 | 8.31079 | 19563 ft | 427 kts | 65° |
| 2026-05-03 20:51 | 47.26693 | 8.35000 | 19042 ft | 423 kts | 65° |
| 2026-05-03 20:52 | 47.27962 | 8.38876 | 18559 ft | 419 kts | 65° |
| 2026-05-03 20:52 | 47.28850 | 8.42791 | 18314 ft | 398 kts | 82° |
| 2026-05-03 20:52 | 47.28978 | 8.46776 | 17521 ft | 386 kts | 94° |
| 2026-05-03 20:52 | 47.28858 | 8.50696 | 16624 ft | 380 kts | 95° |
| 2026-05-03 20:53 | 47.28720 | 8.54559 | 15751 ft | 375 kts | 95° |
| 2026-05-03 20:53 | 47.28578 | 8.58373 | 14899 ft | 371 kts | 95° |
| 2026-05-03 20:53 | 47.28436 | 8.62142 | 14088 ft | 366 kts | 95° |
| 2026-05-03 20:53 | 47.28293 | 8.65871 | 13218 ft | 362 kts | 95° |
| 2026-05-03 20:54 | 47.28152 | 8.69539 | 12348 ft | 357 kts | 95° |
| 2026-05-03 20:54 | 47.27890 | 8.76731 | 10631 ft | 346 kts | 95° |
| 2026-05-03 20:54 | 47.27777 | 8.80205 | 10258 ft | 328 kts | 95° |
| 2026-05-03 20:55 | 47.27679 | 8.83434 | 10129 ft | 303 kts | 95° |
| 2026-05-03 20:55 | 47.27596 | 8.86422 | 10011 ft | 282 kts | 95° |
| 2026-05-03 20:55 | 47.27524 | 8.89227 | 9649 ft | 271 kts | 95° |
| 2026-05-03 20:55 | 47.27514 | 8.91999 | 9070 ft | 271 kts | 83° |
| 2026-05-03 20:56 | 47.28194 | 8.94552 | 8527 ft | 269 kts | 53° |
| 2026-05-03 20:56 | 47.29598 | 8.96310 | 7980 ft | 267 kts | 24° |
| 2026-05-03 20:56 | 47.31376 | 8.96986 | 7388 ft | 264 kts | 7° |
| 2026-05-03 20:56 | 47.33200 | 8.97261 | 6803 ft | 263 kts | 4° |
| 2026-05-03 20:57 | 47.35018 | 8.97060 | 6266 ft | 262 kts | 351° |
| 2026-05-03 20:57 | 47.36798 | 8.96569 | 5919 ft | 259 kts | 349° |
| 2026-05-03 20:57 | 47.38553 | 8.96011 | 5581 ft | 256 kts | 342° |
| 2026-05-03 20:57 | 47.40145 | 8.94896 | 5253 ft | 252 kts | 330° |
| 2026-05-03 20:58 | 47.41600 | 8.93502 | 5021 ft | 245 kts | 317° |
| 2026-05-03 20:58 | 47.42665 | 8.91614 | 5005 ft | 239 kts | 299° |
| 2026-05-03 20:58 | 47.43278 | 8.89340 | 5007 ft | 238 kts | 281° |
| 2026-05-03 20:58 | 47.43481 | 8.86984 | 5007 ft | 225 kts | 275° |
| 2026-05-03 20:59 | 47.43649 | 8.84721 | 5006 ft | 220 kts | 275° |
| 2026-05-03 20:59 | 47.43811 | 8.82543 | 5030 ft | 205 kts | 275° |
| 2026-05-03 20:59 | 47.43962 | 8.80494 | 4832 ft | 197 kts | 276° |
| 2026-05-03 20:59 | 47.44108 | 8.78499 | 4562 ft | 194 kts | 276° |
| 2026-05-03 21:00 | 47.44252 | 8.76532 | 4285 ft | 191 kts | 275° |
| 2026-05-03 21:00 | 47.44298 | 8.75897 | 4195 ft | 191 kts | 275° |
| 2026-05-03 21:00 | 47.44529 | 8.72729 | 3740 ft | 176 kts | 275° |
| 2026-05-03 21:00 | 47.44655 | 8.71002 | 3497 ft | 164 kts | 276° |
| 2026-05-03 21:01 | 47.44771 | 8.69403 | 3281 ft | 153 kts | 276° |
| 2026-05-03 21:01 | 47.44880 | 8.67897 | 3064 ft | 144 kts | 275° |
| 2026-05-03 21:01 | 47.44985 | 8.66443 | 2857 ft | 141 kts | 275° |
| 2026-05-03 21:01 | 47.45088 | 8.65022 | 2654 ft | 140 kts | 275° |
| 2026-05-03 21:02 | 47.45190 | 8.63597 | 2443 ft | 140 kts | 275° |
| 2026-05-03 21:02 | 47.45258 | 8.62653 | 2303 ft | 139 kts | 275° |
| 2026-05-03 21:02 | 47.45360 | 8.61228 | 2087 ft | 140 kts | 276° |
| 2026-05-03 21:02 | 47.45456 | 8.59794 | 1885 ft | 141 kts | 276° |
| 2026-05-03 21:03 | 47.45594 | 8.57880 | 1592 ft | 142 kts | 276° |
| 2026-05-03 21:03 | 47.45698 | 8.56450 | 1419 ft | 132 kts | 276° |
| 2026-05-03 21:03 | 47.45758 | 8.55637 | 1404 ft | 97 kts | 276° |
| 2026-05-03 21:03 | 47.45807 | 8.55007 | 1397 ft | 24 kts | 277° |
| 2026-05-03 21:04 | 47.45740 | 8.54871 | 1397 ft | 17 kts | 180° |
| 2026-05-03 21:04 | 47.45633 | 8.54931 | 1400 ft | 17 kts | 154° |
| 2026-05-03 21:04 | 47.45524 | 8.55008 | 1397 ft | 18 kts | 153° |
| 2026-05-03 21:04 | 47.45438 | 8.55133 | 1405 ft | 18 kts | 125° |
| 2026-05-03 21:05 | 47.45376 | 8.55294 | 1401 ft | 18 kts | 118° |
| 2026-05-03 21:05 | 47.45316 | 8.55458 | 1405 ft | 18 kts | 118° |
| 2026-05-03 21:05 | 47.45273 | 8.55618 | 1407 ft | 16 kts | 97° |
| 2026-05-03 21:05 | 47.45263 | 8.55764 | 1407 ft | 9 kts | 96° |
| 2026-05-03 21:06 | 47.45298 | 8.55800 | 1407 ft | 6 kts | 7° |
| 2026-05-03 21:06 | 47.45336 | 8.55807 | 1407 ft | 3 kts | 6° |
| 2026-05-03 21:06 | 47.45337 | 8.55807 | 1407 ft | 0 kts | 6° |